createdAt,value
2019-01-11T00:02:32.576Z,2.90
2019-01-11T00:07:37.618Z,2.87
2019-01-11T00:12:42.622Z,2.67
2019-01-11T00:17:47.897Z,3.20
2019-01-11T00:22:52.681Z,3.00
2019-01-11T00:27:57.731Z,2.80
2019-01-11T00:33:02.553Z,3.33
2019-01-11T00:38:07.290Z,2.93
2019-01-11T00:43:15.129Z,3.47
2019-01-11T00:48:18.594Z,2.90
2019-01-11T00:53:23.381Z,3.33
2019-01-11T00:58:28.129Z,2.93
2019-01-11T01:03:33.207Z,3.17
2019-01-11T01:08:38.102Z,3.97
2019-01-11T01:13:45.630Z,4.03
2019-01-11T01:18:50.516Z,4.07
2019-01-11T01:23:55.273Z,5.27
2019-01-11T01:29:00.100Z,4.70
2019-01-11T01:34:05.329Z,4.97
2019-01-11T01:39:10.490Z,5.00
2019-01-11T01:44:15.318Z,5.43
2019-01-11T01:49:26.390Z,6.30
2019-01-11T01:54:27.592Z,5.87
2019-01-11T01:59:32.401Z,5.33
2019-01-11T02:04:37.209Z,5.70
2019-01-11T02:09:43.018Z,5.63
2019-01-11T02:14:47.851Z,6.13
2019-01-11T02:19:52.770Z,6.00
2019-01-11T02:24:57.765Z,5.80
2019-01-11T02:30:02.593Z,6.23
2019-01-11T02:35:08.599Z,6.83
2019-01-11T02:40:14.268Z,6.33
2019-01-11T02:45:20.225Z,6.10
2019-01-11T02:50:25.067Z,6.27
2019-01-11T02:55:29.945Z,6.47
2019-01-11T03:00:34.773Z,6.27
2019-01-11T03:05:39.959Z,6.27
2019-01-11T03:10:44.922Z,6.37
2019-01-11T03:15:49.633Z,6.60
2019-01-11T03:20:54.962Z,6.27
2019-01-11T03:25:59.852Z,6.30
2019-01-11T03:31:13.941Z,5.97
2019-01-11T03:36:18.732Z,5.90
2019-01-11T03:41:23.617Z,6.20
2019-01-11T03:46:28.490Z,6.13
2019-01-11T03:51:33.328Z,5.93
2019-01-11T03:56:38.056Z,6.47
2019-01-11T04:01:42.772Z,5.30
2019-01-11T04:06:47.661Z,5.97
2019-01-11T04:11:52.644Z,6.00
2019-01-11T04:16:57.392Z,5.40
2019-01-11T04:22:09.360Z,5.27
2019-01-11T04:27:14.116Z,5.27
2019-01-11T04:32:18.921Z,5.07
2019-01-11T04:37:23.853Z,4.37
2019-01-11T04:42:28.965Z,4.20
2019-01-11T04:47:34.073Z,4.53
2019-01-11T04:52:38.807Z,4.67
2019-01-11T04:57:43.647Z,5.07
2019-01-11T05:02:49.147Z,4.60
2019-01-11T05:07:54.046Z,4.70
2019-01-11T05:13:09.015Z,5.13
2019-01-11T05:18:13.713Z,5.17
2019-01-11T05:23:18.434Z,5.40
2019-01-11T05:28:23.405Z,5.10
2019-01-11T05:33:29.295Z,5.10
2019-01-11T05:38:34.097Z,4.77
2019-01-11T05:43:38.885Z,4.93
2019-01-11T05:48:43.616Z,4.70
2019-01-11T05:53:54.267Z,4.70
2019-01-11T05:59:05.073Z,5.27
2019-01-11T06:04:32.196Z,4.43
2019-01-11T06:09:36.988Z,3.90
2019-01-11T06:14:41.765Z,4.37
2019-01-11T06:19:46.500Z,3.80
2019-01-11T06:24:51.374Z,3.60
2019-01-11T06:29:56.903Z,3.57
2019-01-11T06:35:01.993Z,3.50
2019-01-11T06:40:07.698Z,3.10
2019-01-11T06:45:12.578Z,3.20
2019-01-11T06:50:17.389Z,3.13
2019-01-11T06:55:22.195Z,3.07
2019-01-11T07:00:27.039Z,3.83
2019-01-11T07:05:31.785Z,3.40
2019-01-11T07:10:36.514Z,3.67
2019-01-11T07:15:41.292Z,3.97
2019-01-11T07:20:46.385Z,3.50
2019-01-11T07:25:51.273Z,3.40
2019-01-11T07:31:09.944Z,3.37
2019-01-11T07:36:31.433Z,3.30
2019-01-11T07:41:36.221Z,3.67
2019-01-11T07:46:42.742Z,2.90
2019-01-11T07:51:47.744Z,3.40
2019-01-11T07:56:53.498Z,3.47
2019-01-11T08:01:58.636Z,3.33
2019-01-11T08:07:04.100Z,3.53
2019-01-11T08:12:08.996Z,4.17
2019-01-11T08:17:13.819Z,3.40
2019-01-11T08:22:40.781Z,3.17
2019-01-11T08:27:45.742Z,3.60
2019-01-11T08:32:50.807Z,3.67
2019-01-11T08:37:55.912Z,3.70
2019-01-11T08:43:00.929Z,3.67
2019-01-11T08:48:05.873Z,4.23
2019-01-11T08:53:11.019Z,4.40
2019-01-11T08:58:15.881Z,4.47
2019-01-11T09:03:20.957Z,4.13
2019-01-11T09:08:26.038Z,3.80
2019-01-11T09:13:30.838Z,3.70
2019-01-11T09:18:46.626Z,4.23
2019-01-11T09:23:51.645Z,4.07
2019-01-11T09:28:56.374Z,3.60
2019-01-11T09:34:01.306Z,4.37
2019-01-11T09:39:10.027Z,3.80
2019-01-11T09:44:14.780Z,3.87
2019-01-11T09:49:21.555Z,4.27
2019-01-11T09:54:26.982Z,5.03
2019-01-11T09:59:35.083Z,5.73
2019-01-11T10:04:40.982Z,4.53
2019-01-11T10:09:47.165Z,4.97
2019-01-11T10:14:54.875Z,4.47
2019-01-11T10:20:06.129Z,4.80
2019-01-11T10:25:11.612Z,4.93
2019-01-11T10:30:20.286Z,4.90
2019-01-11T10:35:25.257Z,4.03
2019-01-11T10:40:30.611Z,4.30
2019-01-11T10:45:35.417Z,4.47
2019-01-11T10:50:43.435Z,4.17
2019-01-11T10:55:50.546Z,4.80
2019-01-11T11:00:55.471Z,5.17
2019-01-11T11:06:01.046Z,5.87
2019-01-11T11:11:05.897Z,4.57
2019-01-11T11:16:12.821Z,6.20
2019-01-11T11:21:20.505Z,5.13
2019-01-11T11:26:28.250Z,6.23
2019-01-11T11:31:35.719Z,6.27
2019-01-11T11:36:42.949Z,4.73
2019-01-11T11:41:47.567Z,5.37
2019-01-11T11:46:52.522Z,5.87
2019-01-11T11:51:57.611Z,5.00
2019-01-11T12:02:46.597Z,5.23
2019-01-11T12:07:55.142Z,4.97
2019-01-11T12:13:06.267Z,5.30
2019-01-11T12:18:11.149Z,4.43
2019-01-11T12:23:16.288Z,4.80
2019-01-11T12:28:21.274Z,4.87
2019-01-11T12:33:27.041Z,5.17
2019-01-11T12:38:51.502Z,5.17
2019-01-11T12:44:01.635Z,5.07
2019-01-11T12:49:06.602Z,4.50
2019-01-11T12:54:11.857Z,4.20
2019-01-11T12:59:16.635Z,5.70
2019-01-11T13:04:21.749Z,4.67
2019-01-11T13:09:26.813Z,4.40
2019-01-11T13:14:31.823Z,4.23
2019-01-11T13:19:36.652Z,5.23
2019-01-11T13:24:41.747Z,4.40
2019-01-11T13:29:46.887Z,5.37
2019-01-11T13:34:51.833Z,4.47
2019-01-11T13:39:58.486Z,5.30
2019-01-11T13:45:03.700Z,5.40
2019-01-11T13:50:14.747Z,5.40
2019-01-11T13:55:27.045Z,6.27
2019-01-11T14:00:33.944Z,5.17
2019-01-11T14:05:39.008Z,4.87
2019-01-11T14:10:45.348Z,5.60
2019-01-11T14:15:54.355Z,5.23
2019-01-11T14:21:00.384Z,5.37
2019-01-11T14:26:19.815Z,4.97
2019-01-11T14:31:24.671Z,6.20
2019-01-11T14:36:29.733Z,6.07
2019-01-11T14:41:39.410Z,6.70
2019-01-11T14:46:46.057Z,6.57
2019-01-11T14:51:55.862Z,6.50
2019-01-11T14:57:09.933Z,5.57
2019-01-11T15:02:19.237Z,4.90
2019-01-11T15:07:24.137Z,5.17
2019-01-11T15:12:30.157Z,4.70
2019-01-11T15:17:34.900Z,4.07
2019-01-11T15:22:40.808Z,4.60
2019-01-11T15:27:45.777Z,4.27
2019-01-11T15:32:50.587Z,3.70
2019-01-11T15:37:56.377Z,3.50
2019-01-11T15:43:01.593Z,4.00
2019-01-11T15:48:06.500Z,3.20
2019-01-11T15:53:11.402Z,4.40
2019-01-11T15:58:16.332Z,3.27
2019-01-11T16:03:24.825Z,3.13
2019-01-11T16:08:29.738Z,3.20
2019-01-11T16:14:10.319Z,3.57
2019-01-11T16:19:17.144Z,2.97
2019-01-11T16:24:22.032Z,3.70
2019-01-11T16:29:27.145Z,3.20
2019-01-11T16:34:31.944Z,3.53
2019-01-11T16:39:37.030Z,3.40
2019-01-11T16:44:43.954Z,3.80
2019-01-11T16:49:49.092Z,4.30
2019-01-11T16:54:55.135Z,3.73
2019-01-11T16:59:59.924Z,4.23
2019-01-11T17:05:05.742Z,4.17
2019-01-11T17:10:12.548Z,4.50
2019-01-11T17:15:18.281Z,3.97
2019-01-11T17:20:23.274Z,4.90
2019-01-11T17:25:28.133Z,4.10
2019-01-11T17:30:32.982Z,3.97
2019-01-11T17:35:38.574Z,3.67
2019-01-11T17:40:45.157Z,4.30
2019-01-11T17:45:49.913Z,4.93
2019-01-11T17:50:55.045Z,4.93
2019-01-11T17:56:09.219Z,4.63
2019-01-11T18:01:14.030Z,4.83
2019-01-11T18:06:19.189Z,4.70
2019-01-11T18:11:24.085Z,4.20
2019-01-11T18:16:28.886Z,3.93
2019-01-11T18:21:34.370Z,4.33
2019-01-11T18:26:39.308Z,4.03
2019-01-11T18:31:45.373Z,4.43
2019-01-11T18:36:51.750Z,4.87
2019-01-11T18:41:56.849Z,4.17
2019-01-11T18:47:01.678Z,4.50
2019-01-11T18:52:06.956Z,3.67
2019-01-11T18:57:11.929Z,4.50
2019-01-11T19:02:17.208Z,4.53
2019-01-11T19:07:22.231Z,4.20
2019-01-11T19:12:27.389Z,3.80
2019-01-11T19:17:32.338Z,4.30
2019-01-11T19:22:37.631Z,4.93
2019-01-11T19:27:42.906Z,4.53
2019-01-11T19:32:47.949Z,5.33
2019-01-11T19:37:53.228Z,5.07
2019-01-11T19:42:58.214Z,4.47
2019-01-11T19:48:07.191Z,4.70
2019-01-11T19:53:12.408Z,4.73
2019-01-11T19:58:17.412Z,5.30
2019-01-11T20:03:22.360Z,5.07
2019-01-11T20:08:27.487Z,4.70
2019-01-11T20:13:32.836Z,5.10
2019-01-11T20:18:37.931Z,5.47
2019-01-11T20:23:44.398Z,5.50
2019-01-11T20:28:51.318Z,5.53
2019-01-11T20:33:56.283Z,5.43
2019-01-11T20:39:05.956Z,4.93
2019-01-11T20:44:10.993Z,6.77
2019-01-11T20:49:21.596Z,5.50
2019-01-11T20:54:26.449Z,6.43
2019-01-11T20:59:31.408Z,7.67
2019-01-11T21:04:36.594Z,5.53
2019-01-11T21:09:41.520Z,5.73
2019-01-11T21:14:46.983Z,5.20
2019-01-11T21:19:56.014Z,4.73
2019-01-11T21:25:01.374Z,4.40
2019-01-11T21:30:15.649Z,4.57
2019-01-11T21:35:32.959Z,4.37
2019-01-11T21:40:42.422Z,4.87
2019-01-11T21:45:48.415Z,4.80
2019-01-11T21:51:07.309Z,4.43
2019-01-11T21:56:12.326Z,4.47
2019-01-11T22:01:18.444Z,5.13
2019-01-11T22:18:28.390Z,3.73
2019-01-11T22:23:45.534Z,3.50
2019-01-11T22:28:50.851Z,4.10
2019-01-11T22:33:58.826Z,3.17
2019-01-11T22:39:08.446Z,2.90
2019-01-11T22:44:13.481Z,3.83
2019-01-11T22:49:18.644Z,3.47
2019-01-11T22:54:23.526Z,2.60
2019-01-11T22:59:29.070Z,2.63
2019-01-11T23:04:33.983Z,2.40
2019-01-11T23:10:00.203Z,3.00
2019-01-11T23:15:09.242Z,2.57
2019-01-11T23:20:15.074Z,3.00
2019-01-11T23:25:19.888Z,2.37
2019-01-11T23:30:24.818Z,2.20
2019-01-11T23:35:29.750Z,1.80
2019-01-11T23:40:34.781Z,1.73
2019-01-11T23:45:39.884Z,1.70
2019-01-11T23:50:44.810Z,1.90
2019-01-11T23:55:49.841Z,2.00
